sensor_id;sensor_type;location;lat;lon;timestamp;P1;durP1;ratioP1;P2;durP2;ratioP2
10335;SDS011;5213;53.548;9.930;2023-02-15T00:01:12;76.28;;;28.00;;
10335;SDS011;5213;53.548;9.930;2023-02-15T00:03:38;78.15;;;32.03;;
10335;SDS011;5213;53.548;9.930;2023-02-15T00:06:04;105.88;;;32.10;;
10335;SDS011;5213;53.548;9.930;2023-02-15T00:08:30;112.90;;;28.85;;
10335;SDS011;5213;53.548;9.930;2023-02-15T00:11:06;52.45;;;26.88;;
10335;SDS011;5213;53.548;9.930;2023-02-15T00:13:32;87.47;;;28.70;;
10335;SDS011;5213;53.548;9.930;2023-02-15T00:16:01;95.80;;;27.67;;
10335;SDS011;5213;53.548;9.930;2023-02-15T00:18:27;64.00;;;26.55;;
10335;SDS011;5213;53.548;9.930;2023-02-15T00:20:53;75.07;;;27.25;;
10335;SDS011;5213;53.548;9.930;2023-02-15T00:23:19;62.95;;;27.30;;
10335;SDS011;5213;53.548;9.930;2023-02-15T00:25:45;79.85;;;27.20;;
10335;SDS011;5213;53.548;9.930;2023-02-15T00:28:11;82.97;;;28.08;;
10335;SDS011;5213;53.548;9.930;2023-02-15T00:30:38;111.32;;;29.75;;
10335;SDS011;5213;53.548;9.930;2023-02-15T00:33:04;72.80;;;28.83;;
10335;SDS011;5213;53.548;9.930;2023-02-15T00:35:30;84.68;;;29.10;;
10335;SDS011;5213;53.548;9.930;2023-02-15T00:37:56;89.57;;;29.20;;
10335;SDS011;5213;53.548;9.930;2023-02-15T00:40:22;87.28;;;28.58;;
10335;SDS011;5213;53.548;9.930;2023-02-15T00:42:48;74.65;;;28.95;;
10335;SDS011;5213;53.548;9.930;2023-02-15T00:45:14;67.75;;;27.75;;
10335;SDS011;5213;53.548;9.930;2023-02-15T00:47:40;104.32;;;28.13;;
10335;SDS011;5213;53.548;9.930;2023-02-15T00:50:06;110.22;;;28.13;;
10335;SDS011;5213;53.548;9.930;2023-02-15T00:52:32;118.95;;;28.75;;
10335;SDS011;5213;53.548;9.930;2023-02-15T00:54:58;83.40;;;26.70;;
10335;SDS011;5213;53.548;9.930;2023-02-15T00:57:24;71.57;;;28.33;;
10335;SDS011;5213;53.548;9.930;2023-02-15T00:59:50;88.68;;;28.52;;
10335;SDS011;5213;53.548;9.930;2023-02-15T01:02:16;89.93;;;28.77;;
10335;SDS011;5213;53.548;9.930;2023-02-15T01:04:42;81.88;;;28.35;;
10335;SDS011;5213;53.548;9.930;2023-02-15T01:07:08;93.60;;;29.55;;
10335;SDS011;5213;53.548;9.930;2023-02-15T01:09:34;72.55;;;27.60;;
10335;SDS011;5213;53.548;9.930;2023-02-15T01:12:00;86.05;;;28.83;;
10335;SDS011;5213;53.548;9.930;2023-02-15T01:14:26;76.07;;;28.30;;
10335;SDS011;5213;53.548;9.930;2023-02-15T01:16:52;106.63;;;29.83;;
10335;SDS011;5213;53.548;9.930;2023-02-15T01:19:18;91.85;;;29.17;;
10335;SDS011;5213;53.548;9.930;2023-02-15T01:21:44;82.25;;;27.75;;
10335;SDS011;5213;53.548;9.930;2023-02-15T01:24:13;69.00;;;28.90;;
10335;SDS011;5213;53.548;9.930;2023-02-15T01:26:40;76.40;;;29.58;;
10335;SDS011;5213;53.548;9.930;2023-02-15T01:29:06;80.75;;;28.10;;
10335;SDS011;5213;53.548;9.930;2023-02-15T01:31:32;79.53;;;28.60;;
10335;SDS011;5213;53.548;9.930;2023-02-15T01:33:58;68.72;;;26.92;;
10335;SDS011;5213;53.548;9.930;2023-02-15T01:36:24;80.22;;;27.42;;
10335;SDS011;5213;53.548;9.930;2023-02-15T01:38:50;64.72;;;27.63;;
10335;SDS011;5213;53.548;9.930;2023-02-15T01:41:16;91.65;;;27.70;;
10335;SDS011;5213;53.548;9.930;2023-02-15T01:43:46;80.20;;;27.95;;
10335;SDS011;5213;53.548;9.930;2023-02-15T01:46:13;79.10;;;27.92;;
10335;SDS011;5213;53.548;9.930;2023-02-15T01:48:50;69.63;;;28.17;;
10335;SDS011;5213;53.548;9.930;2023-02-15T01:51:20;81.93;;;28.63;;
10335;SDS011;5213;53.548;9.930;2023-02-15T01:53:48;84.80;;;27.52;;
10335;SDS011;5213;53.548;9.930;2023-02-15T01:56:27;59.85;;;28.15;;
10335;SDS011;5213;53.548;9.930;2023-02-15T01:58:55;64.20;;;28.42;;
10335;SDS011;5213;53.548;9.930;2023-02-15T02:01:23;77.32;;;28.42;;
10335;SDS011;5213;53.548;9.930;2023-02-15T02:06:15;75.90;;;29.00;;
10335;SDS011;5213;53.548;9.930;2023-02-15T02:08:42;80.18;;;28.30;;
10335;SDS011;5213;53.548;9.930;2023-02-15T02:11:14;74.32;;;27.65;;
10335;SDS011;5213;53.548;9.930;2023-02-15T02:13:41;66.40;;;27.58;;
10335;SDS011;5213;53.548;9.930;2023-02-15T02:16:24;72.03;;;27.48;;
10335;SDS011;5213;53.548;9.930;2023-02-15T02:37:37;86.85;;;28.48;;
10335;SDS011;5213;53.548;9.930;2023-02-15T02:42:40;89.90;;;26.75;;
10335;SDS011;5213;53.548;9.930;2023-02-15T02:50:06;90.60;;;28.25;;
10335;SDS011;5213;53.548;9.930;2023-02-15T02:55:06;92.80;;;28.65;;
10335;SDS011;5213;53.548;9.930;2023-02-15T02:57:34;95.47;;;26.58;;
10335;SDS011;5213;53.548;9.930;2023-02-15T03:00:02;55.92;;;26.65;;
10335;SDS011;5213;53.548;9.930;2023-02-15T03:02:30;56.15;;;26.70;;
10335;SDS011;5213;53.548;9.930;2023-02-15T03:04:59;86.00;;;26.63;;
10335;SDS011;5213;53.548;9.930;2023-02-15T03:07:28;67.43;;;28.25;;
10335;SDS011;5213;53.548;9.930;2023-02-15T03:09:56;91.28;;;27.83;;
10335;SDS011;5213;53.548;9.930;2023-02-15T03:12:24;69.47;;;27.67;;
10335;SDS011;5213;53.548;9.930;2023-02-15T03:14:55;72.65;;;26.20;;
10335;SDS011;5213;53.548;9.930;2023-02-15T03:17:22;84.18;;;27.17;;
10335;SDS011;5213;53.548;9.930;2023-02-15T03:19:49;64.40;;;27.30;;
10335;SDS011;5213;53.548;9.930;2023-02-15T03:22:21;66.53;;;27.52;;
10335;SDS011;5213;53.548;9.930;2023-02-15T03:27:26;77.20;;;26.50;;
10335;SDS011;5213;53.548;9.930;2023-02-15T03:29:56;54.55;;;24.40;;
10335;SDS011;5213;53.548;9.930;2023-02-15T03:32:23;71.43;;;25.75;;
10335;SDS011;5213;53.548;9.930;2023-02-15T03:34:50;54.67;;;26.38;;
10335;SDS011;5213;53.548;9.930;2023-02-15T03:37:22;71.57;;;27.60;;
10335;SDS011;5213;53.548;9.930;2023-02-15T03:39:52;65.18;;;26.90;;
10335;SDS011;5213;53.548;9.930;2023-02-15T03:42:27;76.13;;;26.65;;
10335;SDS011;5213;53.548;9.930;2023-02-15T03:44:59;62.28;;;26.45;;
10335;SDS011;5213;53.548;9.930;2023-02-15T03:47:28;59.13;;;25.27;;
10335;SDS011;5213;53.548;9.930;2023-02-15T03:52:28;60.38;;;26.13;;
10335;SDS011;5213;53.548;9.930;2023-02-15T03:54:54;83.90;;;25.63;;
10335;SDS011;5213;53.548;9.930;2023-02-15T03:57:22;70.55;;;25.80;;
10335;SDS011;5213;53.548;9.930;2023-02-15T04:05:29;55.17;;;25.45;;
10335;SDS011;5213;53.548;9.930;2023-02-15T04:07:55;52.40;;;26.08;;
10335;SDS011;5213;53.548;9.930;2023-02-15T04:10:21;53.42;;;27.02;;
10335;SDS011;5213;53.548;9.930;2023-02-15T04:13:06;67.72;;;26.90;;
10335;SDS011;5213;53.548;9.930;2023-02-15T04:15:32;70.00;;;27.00;;
10335;SDS011;5213;53.548;9.930;2023-02-15T04:18:16;72.03;;;25.77;;
10335;SDS011;5213;53.548;9.930;2023-02-15T04:20:43;112.03;;;26.73;;
10335;SDS011;5213;53.548;9.930;2023-02-15T04:23:28;73.47;;;24.85;;
10335;SDS011;5213;53.548;9.930;2023-02-15T04:26:13;64.13;;;25.17;;
10335;SDS011;5213;53.548;9.930;2023-02-15T04:28:38;78.35;;;25.30;;
10335;SDS011;5213;53.548;9.930;2023-02-15T04:31:05;68.82;;;25.27;;
10335;SDS011;5213;53.548;9.930;2023-02-15T04:33:31;54.20;;;24.55;;
10335;SDS011;5213;53.548;9.930;2023-02-15T04:35:57;78.00;;;25.08;;
10335;SDS011;5213;53.548;9.930;2023-02-15T04:38:23;75.28;;;25.65;;
10335;SDS011;5213;53.548;9.930;2023-02-15T04:40:49;59.45;;;24.38;;
10335;SDS011;5213;53.548;9.930;2023-02-15T04:43:16;69.47;;;23.00;;
10335;SDS011;5213;53.548;9.930;2023-02-15T04:45:46;60.88;;;23.38;;
10335;SDS011;5213;53.548;9.930;2023-02-15T04:48:12;79.03;;;25.50;;
10335;SDS011;5213;53.548;9.930;2023-02-15T04:50:38;57.60;;;23.80;;
10335;SDS011;5213;53.548;9.930;2023-02-15T04:53:04;78.13;;;25.48;;
10335;SDS011;5213;53.548;9.930;2023-02-15T04:55:30;84.47;;;26.08;;
10335;SDS011;5213;53.548;9.930;2023-02-15T04:57:56;78.40;;;24.92;;
10335;SDS011;5213;53.548;9.930;2023-02-15T05:00:22;57.55;;;24.15;;
10335;SDS011;5213;53.548;9.930;2023-02-15T05:02:48;59.55;;;24.08;;
10335;SDS011;5213;53.548;9.930;2023-02-15T05:05:14;66.10;;;23.38;;
10335;SDS011;5213;53.548;9.930;2023-02-15T05:07:40;64.93;;;23.95;;
10335;SDS011;5213;53.548;9.930;2023-02-15T05:10:07;53.83;;;25.35;;
10335;SDS011;5213;53.548;9.930;2023-02-15T05:12:33;68.80;;;23.75;;
10335;SDS011;5213;53.548;9.930;2023-02-15T05:14:59;64.18;;;24.52;;
10335;SDS011;5213;53.548;9.930;2023-02-15T05:17:25;71.55;;;25.50;;
10335;SDS011;5213;53.548;9.930;2023-02-15T05:19:51;96.70;;;23.50;;
10335;SDS011;5213;53.548;9.930;2023-02-15T05:22:17;66.70;;;24.10;;
10335;SDS011;5213;53.548;9.930;2023-02-15T05:24:43;44.08;;;23.80;;
10335;SDS011;5213;53.548;9.930;2023-02-15T05:27:27;52.13;;;23.15;;
10335;SDS011;5213;53.548;9.930;2023-02-15T05:30:12;53.60;;;23.20;;
10335;SDS011;5213;53.548;9.930;2023-02-15T05:32:39;75.68;;;24.25;;
10335;SDS011;5213;53.548;9.930;2023-02-15T05:35:05;112.28;;;25.70;;
10335;SDS011;5213;53.548;9.930;2023-02-15T05:37:32;64.13;;;24.55;;
10335;SDS011;5213;53.548;9.930;2023-02-15T05:39:58;70.85;;;23.42;;
10335;SDS011;5213;53.548;9.930;2023-02-15T05:42:24;52.58;;;23.98;;
10335;SDS011;5213;53.548;9.930;2023-02-15T05:44:50;99.05;;;23.52;;
10335;SDS011;5213;53.548;9.930;2023-02-15T05:47:16;45.00;;;20.60;;
10335;SDS011;5213;53.548;9.930;2023-02-15T05:49:42;56.13;;;20.83;;
10335;SDS011;5213;53.548;9.930;2023-02-15T05:52:08;77.20;;;21.52;;
10335;SDS011;5213;53.548;9.930;2023-02-15T05:54:34;50.97;;;20.17;;
10335;SDS011;5213;53.548;9.930;2023-02-15T05:57:00;68.82;;;21.00;;
10335;SDS011;5213;53.548;9.930;2023-02-15T05:59:26;59.33;;;20.60;;
10335;SDS011;5213;53.548;9.930;2023-02-15T06:01:52;77.13;;;21.48;;
10335;SDS011;5213;53.548;9.930;2023-02-15T06:04:18;63.40;;;21.08;;
10335;SDS011;5213;53.548;9.930;2023-02-15T06:06:44;59.60;;;21.42;;
10335;SDS011;5213;53.548;9.930;2023-02-15T06:09:11;59.33;;;22.10;;
10335;SDS011;5213;53.548;9.930;2023-02-15T06:11:37;104.85;;;22.70;;
10335;SDS011;5213;53.548;9.930;2023-02-15T06:14:03;101.15;;;22.67;;
10335;SDS011;5213;53.548;9.930;2023-02-15T06:16:29;62.63;;;22.73;;
10335;SDS011;5213;53.548;9.930;2023-02-15T06:18:56;86.78;;;22.45;;
10335;SDS011;5213;53.548;9.930;2023-02-15T06:21:24;124.72;;;22.55;;
10335;SDS011;5213;53.548;9.930;2023-02-15T06:23:50;81.22;;;21.98;;
10335;SDS011;5213;53.548;9.930;2023-02-15T06:26:16;70.38;;;21.27;;
10335;SDS011;5213;53.548;9.930;2023-02-15T06:28:41;79.55;;;22.77;;
10335;SDS011;5213;53.548;9.930;2023-02-15T06:31:07;82.82;;;22.27;;
10335;SDS011;5213;53.548;9.930;2023-02-15T06:33:34;61.80;;;21.55;;
10335;SDS011;5213;53.548;9.930;2023-02-15T06:36:00;69.43;;;21.10;;
10335;SDS011;5213;53.548;9.930;2023-02-15T06:38:27;47.60;;;21.13;;
10335;SDS011;5213;53.548;9.930;2023-02-15T06:40:53;62.33;;;20.95;;
10335;SDS011;5213;53.548;9.930;2023-02-15T06:43:19;60.35;;;22.00;;
10335;SDS011;5213;53.548;9.930;2023-02-15T06:45:45;99.32;;;21.95;;
10335;SDS011;5213;53.548;9.930;2023-02-15T06:48:11;58.20;;;20.38;;
10335;SDS011;5213;53.548;9.930;2023-02-15T06:50:37;43.95;;;20.88;;
10335;SDS011;5213;53.548;9.930;2023-02-15T06:53:03;49.58;;;20.25;;
10335;SDS011;5213;53.548;9.930;2023-02-15T06:55:29;35.05;;;20.25;;
10335;SDS011;5213;53.548;9.930;2023-02-15T06:57:55;41.70;;;20.80;;
10335;SDS011;5213;53.548;9.930;2023-02-15T07:00:21;66.80;;;22.00;;
10335;SDS011;5213;53.548;9.930;2023-02-15T07:02:48;49.17;;;21.13;;
10335;SDS011;5213;53.548;9.930;2023-02-15T07:05:20;38.67;;;19.80;;
10335;SDS011;5213;53.548;9.930;2023-02-15T07:07:46;42.75;;;21.17;;
10335;SDS011;5213;53.548;9.930;2023-02-15T07:10:12;51.75;;;21.20;;
10335;SDS011;5213;53.548;9.930;2023-02-15T07:12:38;52.10;;;21.90;;
10335;SDS011;5213;53.548;9.930;2023-02-15T07:15:11;43.00;;;21.30;;
10335;SDS011;5213;53.548;9.930;2023-02-15T07:17:37;37.88;;;21.55;;
10335;SDS011;5213;53.548;9.930;2023-02-15T07:20:04;58.95;;;23.08;;
10335;SDS011;5213;53.548;9.930;2023-02-15T07:22:32;67.50;;;22.48;;
10335;SDS011;5213;53.548;9.930;2023-02-15T07:25:00;44.45;;;20.33;;
10335;SDS011;5213;53.548;9.930;2023-02-15T07:27:26;45.00;;;22.13;;
10335;SDS011;5213;53.548;9.930;2023-02-15T07:29:52;38.58;;;21.15;;
10335;SDS011;5213;53.548;9.930;2023-02-15T07:32:18;44.78;;;21.23;;
10335;SDS011;5213;53.548;9.930;2023-02-15T07:34:44;61.38;;;21.05;;
10335;SDS011;5213;53.548;9.930;2023-02-15T07:37:10;35.70;;;20.08;;
10335;SDS011;5213;53.548;9.930;2023-02-15T07:39:36;43.17;;;20.73;;
10335;SDS011;5213;53.548;9.930;2023-02-15T07:42:02;55.30;;;20.65;;
10335;SDS011;5213;53.548;9.930;2023-02-15T07:44:28;50.75;;;21.08;;
10335;SDS011;5213;53.548;9.930;2023-02-15T07:46:54;48.10;;;21.05;;
10335;SDS011;5213;53.548;9.930;2023-02-15T07:49:21;46.15;;;20.38;;
10335;SDS011;5213;53.548;9.930;2023-02-15T07:51:48;47.60;;;20.08;;
10335;SDS011;5213;53.548;9.930;2023-02-15T07:54:14;60.47;;;20.38;;
10335;SDS011;5213;53.548;9.930;2023-02-15T07:56:40;39.15;;;20.23;;
10335;SDS011;5213;53.548;9.930;2023-02-15T07:59:06;55.88;;;22.35;;
10335;SDS011;5213;53.548;9.930;2023-02-15T08:01:34;41.63;;;20.85;;
10335;SDS011;5213;53.548;9.930;2023-02-15T08:04:00;37.75;;;21.20;;
10335;SDS011;5213;53.548;9.930;2023-02-15T08:06:29;38.97;;;21.40;;
10335;SDS011;5213;53.548;9.930;2023-02-15T08:08:55;52.25;;;19.98;;
10335;SDS011;5213;53.548;9.930;2023-02-15T08:11:22;36.25;;;20.20;;
10335;SDS011;5213;53.548;9.930;2023-02-15T08:16:38;42.10;;;20.10;;
10335;SDS011;5213;53.548;9.930;2023-02-15T08:19:26;31.65;;;19.92;;
10335;SDS011;5213;53.548;9.930;2023-02-15T08:22:01;55.25;;;20.23;;
10335;SDS011;5213;53.548;9.930;2023-02-15T08:24:31;45.25;;;20.58;;
10335;SDS011;5213;53.548;9.930;2023-02-15T08:26:57;77.85;;;21.88;;
10335;SDS011;5213;53.548;9.930;2023-02-15T08:29:24;48.30;;;20.83;;
10335;SDS011;5213;53.548;9.930;2023-02-15T08:31:55;69.00;;;20.88;;
10335;SDS011;5213;53.548;9.930;2023-02-15T08:34:27;34.80;;;19.83;;
10335;SDS011;5213;53.548;9.930;2023-02-15T08:36:53;44.47;;;20.13;;
10335;SDS011;5213;53.548;9.930;2023-02-15T08:39:19;43.72;;;20.13;;
10335;SDS011;5213;53.548;9.930;2023-02-15T08:41:46;73.10;;;21.30;;
10335;SDS011;5213;53.548;9.930;2023-02-15T08:44:14;34.72;;;20.30;;
10335;SDS011;5213;53.548;9.930;2023-02-15T08:46:40;35.88;;;20.58;;
10335;SDS011;5213;53.548;9.930;2023-02-15T08:49:07;37.72;;;20.08;;
10335;SDS011;5213;53.548;9.930;2023-02-15T08:51:34;32.42;;;20.30;;
10335;SDS011;5213;53.548;9.930;2023-02-15T08:54:02;38.90;;;20.33;;
10335;SDS011;5213;53.548;9.930;2023-02-15T08:56:29;29.23;;;19.05;;
10335;SDS011;5213;53.548;9.930;2023-02-15T08:58:56;36.22;;;19.58;;
10335;SDS011;5213;53.548;9.930;2023-02-15T09:01:27;36.47;;;19.65;;
10335;SDS011;5213;53.548;9.930;2023-02-15T09:03:57;35.85;;;18.42;;
10335;SDS011;5213;53.548;9.930;2023-02-15T09:06:23;43.83;;;18.52;;
10335;SDS011;5213;53.548;9.930;2023-02-15T09:08:50;29.42;;;17.65;;
10335;SDS011;5213;53.548;9.930;2023-02-15T09:11:17;44.50;;;18.83;;
10335;SDS011;5213;53.548;9.930;2023-02-15T09:13:48;37.67;;;18.08;;
10335;SDS011;5213;53.548;9.930;2023-02-15T09:16:14;37.75;;;19.40;;
10335;SDS011;5213;53.548;9.930;2023-02-15T09:18:43;32.95;;;18.08;;
10335;SDS011;5213;53.548;9.930;2023-02-15T09:21:10;28.75;;;19.33;;
10335;SDS011;5213;53.548;9.930;2023-02-15T09:23:38;47.95;;;19.75;;
10335;SDS011;5213;53.548;9.930;2023-02-15T09:26:05;35.25;;;19.48;;
10335;SDS011;5213;53.548;9.930;2023-02-15T09:28:31;42.45;;;19.02;;
10335;SDS011;5213;53.548;9.930;2023-02-15T09:31:04;31.55;;;18.45;;
10335;SDS011;5213;53.548;9.930;2023-02-15T09:33:30;34.38;;;17.38;;
10335;SDS011;5213;53.548;9.930;2023-02-15T09:35:56;31.35;;;17.83;;
10335;SDS011;5213;53.548;9.930;2023-02-15T09:38:22;34.35;;;20.67;;
10335;SDS011;5213;53.548;9.930;2023-02-15T09:40:59;34.95;;;18.50;;
10335;SDS011;5213;53.548;9.930;2023-02-15T09:43:30;28.98;;;19.35;;
10335;SDS011;5213;53.548;9.930;2023-02-15T09:48:31;31.17;;;19.85;;
10335;SDS011;5213;53.548;9.930;2023-02-15T09:51:06;31.25;;;20.48;;
10335;SDS011;5213;53.548;9.930;2023-02-15T09:53:37;32.97;;;21.33;;
10335;SDS011;5213;53.548;9.930;2023-02-15T09:56:15;35.95;;;23.25;;
10335;SDS011;5213;53.548;9.930;2023-02-15T09:58:46;35.67;;;22.63;;
10335;SDS011;5213;53.548;9.930;2023-02-15T10:22:01;39.72;;;23.20;;
10335;SDS011;5213;53.548;9.930;2023-02-15T10:27:06;38.25;;;25.98;;
10335;SDS011;5213;53.548;9.930;2023-02-15T10:29:38;36.80;;;22.80;;
10335;SDS011;5213;53.548;9.930;2023-02-15T10:34:43;43.63;;;25.92;;
10335;SDS011;5213;53.548;9.930;2023-02-15T10:42:20;38.95;;;26.50;;
10335;SDS011;5213;53.548;9.930;2023-02-15T10:47:19;36.42;;;25.70;;
10335;SDS011;5213;53.548;9.930;2023-02-15T10:55:15;39.97;;;25.73;;
10335;SDS011;5213;53.548;9.930;2023-02-15T11:08:09;56.28;;;31.85;;
10335;SDS011;5213;53.548;9.930;2023-02-15T11:10:38;46.20;;;31.08;;
10335;SDS011;5213;53.548;9.930;2023-02-15T11:13:13;46.10;;;29.75;;
10335;SDS011;5213;53.548;9.930;2023-02-15T11:16:02;44.22;;;28.42;;
10335;SDS011;5213;53.548;9.930;2023-02-15T11:18:32;34.67;;;25.05;;
10335;SDS011;5213;53.548;9.930;2023-02-15T11:21:20;36.95;;;24.63;;
10335;SDS011;5213;53.548;9.930;2023-02-15T11:23:47;40.58;;;25.75;;
10335;SDS011;5213;53.548;9.930;2023-02-15T11:26:33;36.47;;;25.83;;
10335;SDS011;5213;53.548;9.930;2023-02-15T11:29:01;43.92;;;29.13;;
10335;SDS011;5213;53.548;9.930;2023-02-15T11:31:37;39.53;;;27.83;;
10335;SDS011;5213;53.548;9.930;2023-02-15T11:34:12;46.72;;;29.42;;
10335;SDS011;5213;53.548;9.930;2023-02-15T11:36:40;45.58;;;31.27;;
10335;SDS011;5213;53.548;9.930;2023-02-15T11:39:11;42.42;;;29.05;;
10335;SDS011;5213;53.548;9.930;2023-02-15T11:41:40;37.28;;;26.08;;
10335;SDS011;5213;53.548;9.930;2023-02-15T11:46:33;41.78;;;26.95;;
10335;SDS011;5213;53.548;9.930;2023-02-15T11:48:59;37.40;;;26.67;;
10335;SDS011;5213;53.548;9.930;2023-02-15T11:51:25;39.55;;;29.02;;
10335;SDS011;5213;53.548;9.930;2023-02-15T11:53:52;38.47;;;26.90;;
10335;SDS011;5213;53.548;9.930;2023-02-15T11:56:20;34.30;;;25.30;;
10335;SDS011;5213;53.548;9.930;2023-02-15T11:58:49;33.10;;;24.10;;
10335;SDS011;5213;53.548;9.930;2023-02-15T12:01:36;34.30;;;24.73;;
10335;SDS011;5213;53.548;9.930;2023-02-15T12:04:08;37.67;;;24.67;;
10335;SDS011;5213;53.548;9.930;2023-02-15T12:06:37;33.17;;;24.08;;
10335;SDS011;5213;53.548;9.930;2023-02-15T12:09:15;33.22;;;23.65;;
10335;SDS011;5213;53.548;9.930;2023-02-15T12:11:44;33.67;;;23.02;;
10335;SDS011;5213;53.548;9.930;2023-02-15T12:14:11;35.70;;;24.10;;
10335;SDS011;5213;53.548;9.930;2023-02-15T12:16:50;34.22;;;23.33;;
10335;SDS011;5213;53.548;9.930;2023-02-15T12:22:02;37.90;;;24.83;;
10335;SDS011;5213;53.548;9.930;2023-02-15T12:24:30;34.75;;;24.38;;
10335;SDS011;5213;53.548;9.930;2023-02-15T12:27:00;33.13;;;23.52;;
10335;SDS011;5213;53.548;9.930;2023-02-15T12:29:27;32.33;;;23.35;;
10335;SDS011;5213;53.548;9.930;2023-02-15T12:31:55;30.65;;;21.98;;
10335;SDS011;5213;53.548;9.930;2023-02-15T12:34:23;37.58;;;24.27;;
10335;SDS011;5213;53.548;9.930;2023-02-15T12:36:54;30.55;;;23.80;;
10335;SDS011;5213;53.548;9.930;2023-02-15T12:39:24;30.95;;;22.85;;
10335;SDS011;5213;53.548;9.930;2023-02-15T12:44:23;31.35;;;23.60;;
10335;SDS011;5213;53.548;9.930;2023-02-15T12:47:24;31.63;;;23.88;;
10335;SDS011;5213;53.548;9.930;2023-02-15T12:49:43;30.77;;;23.35;;
10335;SDS011;5213;53.548;9.930;2023-02-15T12:54:45;30.30;;;23.05;;
10335;SDS011;5213;53.548;9.930;2023-02-15T12:57:13;33.53;;;23.85;;
10335;SDS011;5213;53.548;9.930;2023-02-15T12:59:47;29.10;;;22.92;;
10335;SDS011;5213;53.548;9.930;2023-02-15T13:02:16;32.35;;;24.02;;
10335;SDS011;5213;53.548;9.930;2023-02-15T13:04:47;35.35;;;24.50;;
10335;SDS011;5213;53.548;9.930;2023-02-15T13:07:14;31.05;;;23.40;;
10335;SDS011;5213;53.548;9.930;2023-02-15T13:09:40;40.97;;;24.05;;
10335;SDS011;5213;53.548;9.930;2023-02-15T13:12:17;31.10;;;22.88;;
10335;SDS011;5213;53.548;9.930;2023-02-15T13:14:47;29.77;;;23.10;;
10335;SDS011;5213;53.548;9.930;2023-02-15T13:17:16;33.75;;;22.45;;
10335;SDS011;5213;53.548;9.930;2023-02-15T13:19:47;29.85;;;22.02;;
10335;SDS011;5213;53.548;9.930;2023-02-15T13:25:20;29.50;;;22.70;;
10335;SDS011;5213;53.548;9.930;2023-02-15T13:27:51;28.40;;;21.52;;
10335;SDS011;5213;53.548;9.930;2023-02-15T13:30:25;26.80;;;21.50;;
10335;SDS011;5213;53.548;9.930;2023-02-15T13:32:54;33.50;;;23.58;;
10335;SDS011;5213;53.548;9.930;2023-02-15T13:35:20;35.53;;;23.17;;
10335;SDS011;5213;53.548;9.930;2023-02-15T13:37:54;33.42;;;24.02;;
10335;SDS011;5213;53.548;9.930;2023-02-15T13:40:32;34.50;;;23.23;;
10335;SDS011;5213;53.548;9.930;2023-02-15T13:43:02;32.40;;;24.25;;
10335;SDS011;5213;53.548;9.930;2023-02-15T13:58:42;26.83;;;21.17;;
10335;SDS011;5213;53.548;9.930;2023-02-15T14:01:31;25.83;;;19.50;;
10335;SDS011;5213;53.548;9.930;2023-02-15T14:04:02;26.00;;;19.27;;
10335;SDS011;5213;53.548;9.930;2023-02-15T14:19:13;21.23;;;18.20;;
10335;SDS011;5213;53.548;9.930;2023-02-15T14:31:34;22.45;;;18.33;;
10335;SDS011;5213;53.548;9.930;2023-02-15T14:34:00;21.35;;;17.88;;
10335;SDS011;5213;53.548;9.930;2023-02-15T14:36:27;22.25;;;18.42;;
10335;SDS011;5213;53.548;9.930;2023-02-15T14:42:44;21.83;;;18.25;;
10335;SDS011;5213;53.548;9.930;2023-02-15T14:44:49;23.70;;;17.83;;
10335;SDS011;5213;53.548;9.930;2023-02-15T14:47:19;23.83;;;18.95;;
10335;SDS011;5213;53.548;9.930;2023-02-15T14:49:47;22.33;;;18.17;;
10335;SDS011;5213;53.548;9.930;2023-02-15T14:52:13;24.52;;;18.58;;
10335;SDS011;5213;53.548;9.930;2023-02-15T15:04:34;23.80;;;19.33;;
10335;SDS011;5213;53.548;9.930;2023-02-15T15:09:33;22.13;;;18.75;;
10335;SDS011;5213;53.548;9.930;2023-02-15T15:12:14;19.52;;;17.20;;
10335;SDS011;5213;53.548;9.930;2023-02-15T15:14:42;25.13;;;19.02;;
10335;SDS011;5213;53.548;9.930;2023-02-15T15:17:12;23.27;;;18.00;;
10335;SDS011;5213;53.548;9.930;2023-02-15T15:22:21;28.17;;;19.23;;
10335;SDS011;5213;53.548;9.930;2023-02-15T15:24:51;23.45;;;18.88;;
10335;SDS011;5213;53.548;9.930;2023-02-15T15:30:02;23.70;;;18.33;;
10335;SDS011;5213;53.548;9.930;2023-02-15T15:32:29;20.60;;;17.88;;
10335;SDS011;5213;53.548;9.930;2023-02-15T15:42:50;22.85;;;18.88;;
10335;SDS011;5213;53.548;9.930;2023-02-15T15:50:38;26.48;;;19.70;;
10335;SDS011;5213;53.548;9.930;2023-02-15T15:53:05;24.88;;;19.00;;
10335;SDS011;5213;53.548;9.930;2023-02-15T15:55:32;24.63;;;18.95;;
10335;SDS011;5213;53.548;9.930;2023-02-15T15:58:00;24.48;;;19.67;;
10335;SDS011;5213;53.548;9.930;2023-02-15T16:00:35;23.27;;;19.15;;
10335;SDS011;5213;53.548;9.930;2023-02-15T16:03:03;24.20;;;19.55;;
10335;SDS011;5213;53.548;9.930;2023-02-15T16:05:34;22.25;;;18.75;;
10335;SDS011;5213;53.548;9.930;2023-02-15T16:08:01;25.95;;;19.15;;
10335;SDS011;5213;53.548;9.930;2023-02-15T16:10:27;22.33;;;18.88;;
10335;SDS011;5213;53.548;9.930;2023-02-15T16:12:54;22.98;;;18.63;;
10335;SDS011;5213;53.548;9.930;2023-02-15T16:15:25;25.40;;;18.65;;
10335;SDS011;5213;53.548;9.930;2023-02-15T16:17:55;27.35;;;20.15;;
10335;SDS011;5213;53.548;9.930;2023-02-15T16:20:27;26.05;;;19.77;;
10335;SDS011;5213;53.548;9.930;2023-02-15T16:22:59;23.95;;;19.77;;
10335;SDS011;5213;53.548;9.930;2023-02-15T16:25:35;23.67;;;19.50;;
10335;SDS011;5213;53.548;9.930;2023-02-15T16:28:12;24.33;;;19.35;;
10335;SDS011;5213;53.548;9.930;2023-02-15T16:30:40;24.77;;;19.73;;
10335;SDS011;5213;53.548;9.930;2023-02-15T16:35:37;27.83;;;19.90;;
10335;SDS011;5213;53.548;9.930;2023-02-15T16:38:04;27.27;;;20.27;;
10335;SDS011;5213;53.548;9.930;2023-02-15T16:40:51;24.98;;;19.15;;
10335;SDS011;5213;53.548;9.930;2023-02-15T16:43:18;28.13;;;19.98;;
10335;SDS011;5213;53.548;9.930;2023-02-15T16:45:45;28.20;;;20.10;;
10335;SDS011;5213;53.548;9.930;2023-02-15T16:48:13;30.20;;;21.15;;
10335;SDS011;5213;53.548;9.930;2023-02-15T16:50:40;26.35;;;20.27;;
10335;SDS011;5213;53.548;9.930;2023-02-15T16:53:14;28.23;;;20.25;;
10335;SDS011;5213;53.548;9.930;2023-02-15T16:55:42;32.47;;;21.88;;
10335;SDS011;5213;53.548;9.930;2023-02-15T16:58:13;29.08;;;20.50;;
10335;SDS011;5213;53.548;9.930;2023-02-15T17:00:40;28.77;;;20.45;;
10335;SDS011;5213;53.548;9.930;2023-02-15T17:03:20;28.50;;;21.50;;
10335;SDS011;5213;53.548;9.930;2023-02-15T17:05:48;29.10;;;21.52;;
10335;SDS011;5213;53.548;9.930;2023-02-15T17:08:16;29.23;;;21.52;;
10335;SDS011;5213;53.548;9.930;2023-02-15T17:10:44;29.75;;;22.20;;
10335;SDS011;5213;53.548;9.930;2023-02-15T17:13:12;29.67;;;22.20;;
10335;SDS011;5213;53.548;9.930;2023-02-15T17:15:42;30.80;;;22.80;;
10335;SDS011;5213;53.548;9.930;2023-02-15T17:18:10;32.75;;;21.85;;
10335;SDS011;5213;53.548;9.930;2023-02-15T17:20:37;31.35;;;22.40;;
10335;SDS011;5213;53.548;9.930;2023-02-15T17:23:04;29.80;;;22.15;;
10335;SDS011;5213;53.548;9.930;2023-02-15T17:25:38;34.03;;;24.40;;
10335;SDS011;5213;53.548;9.930;2023-02-15T17:28:04;32.15;;;23.35;;
10335;SDS011;5213;53.548;9.930;2023-02-15T17:30:32;33.88;;;23.85;;
10335;SDS011;5213;53.548;9.930;2023-02-15T17:32:59;32.28;;;23.90;;
10335;SDS011;5213;53.548;9.930;2023-02-15T17:35:32;36.17;;;24.38;;
10335;SDS011;5213;53.548;9.930;2023-02-15T17:38:03;34.28;;;24.48;;
10335;SDS011;5213;53.548;9.930;2023-02-15T17:40:30;34.03;;;24.27;;
10335;SDS011;5213;53.548;9.930;2023-02-15T17:42:57;35.78;;;24.67;;
10335;SDS011;5213;53.548;9.930;2023-02-15T17:45:25;36.80;;;25.10;;